Time;durP1;ratioP1;P1;durP2;ratioP2;P2;SDS_P1;SDS_P2;PMS_P1;PMS_P2;Temp;Humidity;BMP_temperature;BMP_pressure;BME280_temperature;BME280_humidity;BME280_pressure;Samples;Min_cycle;Max_cycle;Signal;HPM_P1;HPM_P2
2024/04/19 00:02:13;;;;;;;5.10;2.72;;;7.30;99.90;;;;;;5349635;26;20069;-78
2024/04/19 00:04:39;;;;;;;7.30;2.15;;;7.30;99.90;;;;;;5349048;26;20095;-78
2024/04/19 00:07:05;;;;;;;4.93;1.90;;;7.30;99.90;;;;;;5379135;26;20030;-79
2024/04/19 00:09:30;;;;;;;5.32;2.30;;;7.30;99.90;;;;;;5378982;26;19997;-78
2024/04/19 00:11:56;;;;;;;6.20;2.70;;;7.30;99.90;;;;;;5378537;26;20004;-78
2024/04/19 00:14:21;;;;;;;9.00;2.97;;;7.30;99.90;;;;;;5376936;26;20323;-79
2024/04/19 00:16:47;;;;;;;6.85;2.78;;;7.30;99.90;;;;;;5380109;26;20012;-78
2024/04/19 00:19:12;;;;;;;7.80;2.97;;;7.30;99.90;;;;;;5378766;26;20007;-78
2024/04/19 00:21:38;;;;;;;7.70;3.13;;;7.30;99.90;;;;;;5378134;26;20004;-79
2024/04/19 00:24:04;;;;;;;9.15;3.60;;;7.30;99.90;;;;;;5377297;26;20444;-78
2024/04/19 00:26:29;;;;;;;6.32;2.83;;;7.30;99.90;;;;;;5348951;26;20000;-79
2024/04/19 00:28:55;;;;;;;9.43;3.72;;;7.30;99.90;;;;;;5377851;26;20000;-78
2024/04/19 00:31:20;;;;;;;7.80;3.67;;;7.20;99.90;;;;;;5347374;26;20078;-78
2024/04/19 00:33:47;;;;;;;9.88;4.18;;;7.20;99.90;;;;;;5347924;26;19996;-78
2024/04/19 00:36:12;;;;;;;9.07;3.50;;;7.20;99.90;;;;;;5345759;26;20099;-79
2024/04/19 00:38:38;;;;;;;8.95;4.13;;;7.20;99.90;;;;;;5378883;26;20019;-78
2024/04/19 00:41:04;;;;;;;8.45;3.85;;;7.20;99.90;;;;;;5377925;26;20074;-79
2024/04/19 00:43:29;;;;;;;8.98;4.47;;;7.20;99.90;;;;;;5376225;26;20452;-79
2024/04/19 00:45:55;;;;;;;9.52;4.18;;;7.20;99.90;;;;;;5377084;26;20000;-80
2024/04/19 00:48:22;;;;;;;9.50;4.03;;;7.20;99.90;;;;;;5378196;26;20390;-78
2024/04/19 00:50:55;;;;;;;8.40;4.88;;;7.20;99.90;;;;;;5379104;26;20000;-79
2024/04/19 00:53:26;;;;;;;8.30;3.97;;;7.20;99.90;;;;;;5376796;26;21909;-79
2024/04/19 00:55:54;;;;;;;10.53;4.63;;;7.20;99.90;;;;;;5368593;26;20040;-79
2024/04/19 00:58:20;;;;;;;12.23;5.43;;;7.20;99.90;;;;;;5381914;26;20085;-79
2024/04/19 01:00:46;;;;;;;9.32;5.15;;;7.20;99.90;;;;;;5380688;26;20414;-78
2024/04/19 01:03:12;;;;;;;11.70;4.78;;;7.20;99.90;;;;;;5381888;26;20000;-78
2024/04/19 01:05:39;;;;;;;8.60;5.03;;;7.20;99.90;;;;;;5381495;26;19993;-79
2024/04/19 01:08:06;;;;;;;8.05;4.50;;;7.20;99.90;;;;;;5378214;26;20022;-80
2024/04/19 01:10:32;;;;;;;10.32;5.00;;;7.20;99.90;;;;;;5381375;26;19996;-80
2024/04/19 01:12:58;;;;;;;8.48;4.75;;;7.20;99.90;;;;;;5379845;26;20004;-80
2024/04/19 01:15:24;;;;;;;7.60;5.03;;;7.20;99.90;;;;;;5381699;26;19996;-80
2024/04/19 01:17:50;;;;;;;9.02;6.10;;;7.20;99.90;;;;;;5350342;26;20010;-81
2024/04/19 01:20:15;;;;;;;11.18;5.90;;;7.20;99.90;;;;;;5344234;26;19993;-79
2024/04/19 01:22:42;;;;;;;10.15;5.35;;;7.20;99.90;;;;;;5346419;26;20012;-81
2024/04/19 01:25:17;;;;;;;11.18;5.75;;;7.20;99.90;;;;;;5346543;26;20006;-79
2024/04/19 01:27:43;;;;;;;11.07;5.70;;;7.20;99.90;;;;;;5345189;26;20029;-79
2024/04/19 01:30:09;;;;;;;11.05;5.50;;;7.20;99.90;;;;;;5345886;26;20016;-79
2024/04/19 01:32:34;;;;;;;12.40;6.43;;;7.20;99.90;;;;;;5345578;26;20008;-79
2024/04/19 01:35:00;;;;;;;9.50;5.97;;;7.20;99.90;;;;;;5342925;26;20001;-80
2024/04/19 01:37:25;;;;;;;9.63;5.43;;;7.20;99.90;;;;;;5340944;26;19997;-79
2024/04/19 01:39:51;;;;;;;13.88;5.82;;;7.20;99.90;;;;;;5344482;26;20056;-79
2024/04/19 01:42:17;;;;;;;10.55;6.28;;;7.30;99.90;;;;;;5344899;26;19997;-79
2024/04/19 01:44:42;;;;;;;8.50;5.50;;;7.30;99.90;;;;;;5346043;26;19997;-78
2024/04/19 01:47:08;;;;;;;9.88;5.43;;;7.30;99.90;;;;;;5345593;26;20024;-79
2024/04/19 01:49:33;;;;;;;8.55;5.75;;;7.30;99.90;;;;;;5346057;26;20008;-79
2024/04/19 01:51:59;;;;;;;7.93;5.30;;;7.30;99.90;;;;;;5344663;26;20005;-79
2024/04/19 01:54:24;;;;;;;9.43;5.63;;;7.30;99.90;;;;;;5346208;26;20004;-79
2024/04/19 01:56:52;;;;;;;11.85;6.60;;;7.30;99.90;;;;;;5345979;26;20011;-80
2024/04/19 01:59:18;;;;;;;12.80;6.00;;;7.30;99.90;;;;;;5343917;26;20038;-79
2024/04/19 02:01:44;;;;;;;11.95;6.30;;;7.30;99.90;;;;;;5344861;26;20000;-79
2024/04/19 02:04:09;;;;;;;8.60;5.55;;;7.30;99.90;;;;;;5344208;26;20012;-80
2024/04/19 02:06:36;;;;;;;9.88;6.38;;;7.30;99.90;;;;;;5343585;26;20005;-79
2024/04/19 02:09:05;;;;;;;10.30;5.60;;;7.30;99.90;;;;;;5344230;26;20070;-78
2024/04/19 02:11:31;;;;;;;10.18;5.68;;;7.30;99.90;;;;;;5343474;26;20091;-79
2024/04/19 02:13:56;;;;;;;7.47;4.18;;;7.30;99.90;;;;;;5344172;26;20456;-79
2024/04/19 02:16:22;;;;;;;11.05;5.65;;;7.30;99.90;;;;;;5343096;26;20001;-81
2024/04/19 02:18:48;;;;;;;7.28;4.70;;;7.30;99.90;;;;;;5345427;26;20331;-80
2024/04/19 02:21:13;;;;;;;10.18;5.35;;;7.30;99.90;;;;;;5368432;26;20081;-78
2024/04/19 02:23:42;;;;;;;7.75;4.72;;;7.30;99.90;;;;;;5379210;26;20008;-80
2024/04/19 02:26:09;;;;;;;11.75;5.00;;;7.30;99.90;;;;;;5347643;26;20020;-79
2024/04/19 02:31:21;;;;;;;8.88;5.22;;;7.30;99.90;;;;;;5380775;26;20069;-79
2024/04/19 02:33:47;;;;;;;10.52;5.80;;;7.30;99.90;;;;;;5381368;26;20008;-79
2024/04/19 02:36:13;;;;;;;10.80;6.65;;;7.40;99.90;;;;;;5377308;26;20074;-80
2024/04/19 02:38:39;;;;;;;8.05;5.47;;;7.40;99.90;;;;;;5380209;26;20012;-79
2024/04/19 02:41:05;;;;;;;10.38;5.20;;;7.40;99.90;;;;;;5380193;26;20498;-79
2024/04/19 02:43:30;;;;;;;11.05;5.88;;;7.40;99.90;;;;;;5378958;26;20015;-79
2024/04/19 02:45:56;;;;;;;10.70;6.20;;;7.40;99.90;;;;;;5380440;26;20008;-79
2024/04/19 02:48:22;;;;;;;12.52;5.40;;;7.40;99.90;;;;;;5380011;26;20001;-80
2024/04/19 02:50:49;;;;;;;15.38;6.45;;;7.40;99.90;;;;;;5377527;26;20011;-80
2024/04/19 02:53:15;;;;;;;9.88;6.18;;;7.40;99.90;;;;;;5381300;26;19996;-79
2024/04/19 02:55:41;;;;;;;11.18;6.70;;;7.40;99.90;;;;;;5378575;26;19996;-79
2024/04/19 02:58:07;;;;;;;11.00;5.88;;;7.40;99.90;;;;;;5379402;26;20004;-79
2024/04/19 03:00:32;;;;;;;13.18;6.78;;;7.40;99.90;;;;;;5378864;26;20004;-80
2024/04/19 03:02:58;;;;;;;9.90;5.80;;;7.40;99.90;;;;;;5378419;26;20405;-80
2024/04/19 03:05:23;;;;;;;10.35;5.68;;;7.40;99.90;;;;;;5379918;26;20010;-79
2024/04/19 03:07:49;;;;;;;13.05;6.05;;;7.40;99.90;;;;;;5378975;26;20073;-80
2024/04/19 03:10:15;;;;;;;6.85;5.22;;;7.40;99.90;;;;;;5379473;26;20000;-79
2024/04/19 03:12:40;;;;;;;7.38;4.63;;;7.40;99.90;;;;;;5377367;26;20002;-79
2024/04/19 03:15:06;;;;;;;9.05;5.57;;;7.40;99.90;;;;;;5376349;26;20480;-79
2024/04/19 03:17:32;;;;;;;8.50;5.40;;;7.40;99.90;;;;;;5376108;26;20595;-79
2024/04/19 03:19:58;;;;;;;7.60;6.13;;;7.40;99.90;;;;;;5376998;26;20079;-80
2024/04/19 03:22:24;;;;;;;12.30;6.57;;;7.40;99.90;;;;;;5376636;26;19996;-80
2024/04/19 03:24:50;;;;;;;7.80;5.97;;;7.40;99.90;;;;;;5379607;26;20827;-79
2024/04/19 03:27:15;;;;;;;9.40;7.10;;;7.40;99.90;;;;;;5379035;26;20000;-79
2024/04/19 03:29:41;;;;;;;8.77;7.03;;;7.40;99.90;;;;;;5377965;26;20007;-80
2024/04/19 03:32:06;;;;;;;11.75;6.93;;;7.40;99.90;;;;;;5349236;26;20076;-79
2024/04/19 03:34:32;;;;;;;12.05;7.38;;;7.40;99.90;;;;;;5379493;26;19996;-78
2024/04/19 03:36:58;;;;;;;12.05;7.50;;;7.40;99.90;;;;;;5378547;26;20012;-80
2024/04/19 03:39:24;;;;;;;9.88;7.90;;;7.40;99.90;;;;;;5379337;26;20444;-80
2024/04/19 03:41:51;;;;;;;10.38;8.27;;;7.40;99.90;;;;;;5377651;26;20000;-79
2024/04/19 03:47:00;;;;;;;10.50;7.85;;;7.40;99.90;;;;;;5367786;26;20074;-79
2024/04/19 03:49:26;;;;;;;9.77;8.35;;;7.40;99.90;;;;;;5379081;26;20443;-80
2024/04/19 03:51:53;;;;;;;13.40;8.77;;;7.40;99.90;;;;;;5378218;26;20008;-80
2024/04/19 03:54:18;;;;;;;16.40;9.13;;;7.40;99.90;;;;;;5378922;26;20004;-79
2024/04/19 03:56:44;;;;;;;11.50;8.65;;;7.40;99.90;;;;;;5380321;26;20441;-79
2024/04/19 03:59:11;;;;;;;13.25;8.73;;;7.40;99.90;;;;;;5378861;26;20015;-80
2024/04/19 04:01:36;;;;;;;12.63;8.60;;;7.40;99.90;;;;;;5377859;26;20077;-79
2024/04/19 04:04:02;;;;;;;13.55;9.13;;;7.40;99.90;;;;;;5378091;26;20012;-79
2024/04/19 04:06:28;;;;;;;10.52;7.97;;;7.40;99.90;;;;;;5379114;26;20351;-78
2024/04/19 04:08:54;;;;;;;11.27;8.27;;;7.40;99.90;;;;;;5377256;26;20036;-82
2024/04/19 04:11:19;;;;;;;9.70;8.38;;;7.50;99.90;;;;;;5371787;26;20007;-80
2024/04/19 04:13:45;;;;;;;11.15;7.97;;;7.50;99.90;;;;;;5376873;26;20000;-80
2024/04/19 04:16:10;;;;;;;9.20;8.25;;;7.40;99.90;;;;;;5378013;26;20008;-81
2024/04/19 04:18:36;;;;;;;10.23;8.18;;;7.50;99.90;;;;;;5378476;26;20011;-81
2024/04/19 04:21:02;;;;;;;9.02;7.25;;;7.40;99.90;;;;;;5345325;26;20005;-80
2024/04/19 04:23:29;;;;;;;8.45;6.47;;;7.50;99.90;;;;;;5378189;26;19996;-79
2024/04/19 04:25:55;;;;;;;10.13;6.57;;;7.50;99.90;;;;;;5377678;26;20004;-79
2024/04/19 04:28:20;;;;;;;9.10;6.90;;;7.50;99.90;;;;;;5377345;26;20459;-80
2024/04/19 04:30:46;;;;;;;7.45;5.90;;;7.50;99.90;;;;;;5351673;26;20072;-81
2024/04/19 04:33:12;;;;;;;7.60;6.80;;;7.50;99.90;;;;;;5377809;26;20007;-80
2024/04/19 04:35:37;;;;;;;9.85;6.60;;;7.50;99.90;;;;;;5349313;26;20142;-79
2024/04/19 04:38:04;;;;;;;8.32;6.57;;;7.50;99.90;;;;;;5378415;26;20039;-79
2024/04/19 04:40:31;;;;;;;7.47;6.35;;;7.50;99.90;;;;;;5377902;26;20070;-79
2024/04/19 04:42:58;;;;;;;7.05;5.38;;;7.50;99.90;;;;;;5377763;26;20468;-79
2024/04/19 04:45:23;;;;;;;6.95;5.45;;;7.50;99.90;;;;;;5380692;26;20343;-79
2024/04/19 04:47:49;;;;;;;6.63;5.40;;;7.60;99.90;;;;;;5383884;26;20000;-79
2024/04/19 04:50:14;;;;;;;6.55;5.38;;;7.60;99.90;;;;;;5352080;26;20012;-79
2024/04/19 04:52:40;;;;;;;6.07;5.43;;;7.60;99.90;;;;;;5382697;26;20073;-78
2024/04/19 04:55:06;;;;;;;8.40;5.85;;;7.60;99.90;;;;;;5377992;26;20015;-78
2024/04/19 04:57:32;;;;;;;8.27;5.28;;;7.60;99.90;;;;;;5374759;26;20016;-79
2024/04/19 04:59:58;;;;;;;6.30;5.28;;;7.70;99.90;;;;;;5382867;26;20073;-79
2024/04/19 05:02:24;;;;;;;6.72;5.25;;;7.70;99.90;;;;;;5381707;26;20054;-79
2024/04/19 05:04:49;;;;;;;6.40;5.13;;;7.70;99.90;;;;;;5346736;26;20015;-80
2024/04/19 05:07:15;;;;;;;6.13;4.72;;;7.80;99.90;;;;;;5372636;26;20036;-79
2024/04/19 05:09:41;;;;;;;6.30;4.88;;;7.80;99.90;;;;;;5381028;26;20452;-79
2024/04/19 05:12:08;;;;;;;6.78;4.82;;;7.80;99.90;;;;;;5369993;26;20448;-79
2024/04/19 05:14:34;;;;;;;8.23;5.40;;;7.80;99.90;;;;;;5380716;26;20008;-80
2024/04/19 05:16:59;;;;;;;7.38;5.22;;;7.80;99.90;;;;;;5381769;26;20065;-80
2024/04/19 05:19:25;;;;;;;6.15;4.63;;;7.90;99.90;;;;;;5380762;26;20010;-79
2024/04/19 05:21:50;;;;;;;6.30;5.38;;;7.90;99.90;;;;;;5350218;26;20337;-80
2024/04/19 05:24:16;;;;;;;6.60;4.93;;;7.90;99.90;;;;;;5374311;26;20039;-79
2024/04/19 05:26:41;;;;;;;5.95;4.90;;;7.90;99.90;;;;;;5380263;26;20037;-80
2024/04/19 05:29:07;;;;;;;7.30;5.85;;;8.00;99.90;;;;;;5372551;26;20001;-79
2024/04/19 05:31:33;;;;;;;7.15;5.32;;;8.00;99.90;;;;;;5365666;26;20088;-80
2024/04/19 05:33:58;;;;;;;6.32;5.50;;;8.10;99.90;;;;;;5371188;26;19997;-79
2024/04/19 05:36:24;;;;;;;7.20;6.03;;;8.10;99.90;;;;;;5342311;26;20012;-80
2024/04/19 05:38:49;;;;;;;7.50;6.50;;;8.20;99.90;;;;;;5372624;26;20019;-78
2024/04/19 05:41:15;;;;;;;7.13;6.43;;;8.20;99.90;;;;;;5344696;26;19992;-79
2024/04/19 05:43:40;;;;;;;9.73;6.78;;;8.20;99.90;;;;;;5349778;26;20000;-80
2024/04/19 05:46:06;;;;;;;9.32;7.40;;;8.30;99.90;;;;;;5376742;26;20459;-79
2024/04/19 05:48:31;;;;;;;9.75;7.60;;;8.40;99.90;;;;;;5374508;26;20066;-80
2024/04/19 05:50:57;;;;;;;10.25;8.57;;;8.40;99.90;;;;;;5379548;26;20008;-79
2024/04/19 05:53:23;;;;;;;9.85;8.57;;;8.50;99.90;;;;;;5372084;26;20028;-79
2024/04/19 05:55:48;;;;;;;13.02;10.20;;;8.50;99.90;;;;;;5350801;26;20007;-79
2024/04/19 05:58:15;;;;;;;12.52;9.90;;;8.60;99.90;;;;;;5377254;26;20015;-81
2024/04/19 06:00:40;;;;;;;12.30;9.85;;;8.60;99.90;;;;;;5380035;26;20471;-81
2024/04/19 06:03:06;;;;;;;16.88;10.10;;;8.70;99.90;;;;;;5376687;26;20012;-81
2024/04/19 06:05:32;;;;;;;12.98;10.75;;;8.70;99.90;;;;;;5351287;26;20024;-80
2024/04/19 06:07:57;;;;;;;19.05;11.27;;;8.80;99.90;;;;;;5346568;26;20003;-81
2024/04/19 06:10:23;;;;;;;15.00;10.48;;;8.80;99.90;;;;;;5329728;26;20011;-81
2024/04/19 06:12:49;;;;;;;21.25;12.45;;;8.90;99.90;;;;;;5348848;26;20019;-81
2024/04/19 06:15:14;;;;;;;16.27;11.27;;;9.00;99.90;;;;;;5346159;26;20119;-81
2024/04/19 06:17:40;;;;;;;18.20;11.27;;;9.00;99.90;;;;;;5347004;26;20811;-81
2024/04/19 06:20:06;;;;;;;19.27;11.15;;;9.10;99.90;;;;;;5347217;26;20009;-81
2024/04/19 06:22:31;;;;;;;19.13;10.60;;;9.20;99.90;;;;;;5343556;26;20411;-80
2024/04/19 06:24:57;;;;;;;17.33;9.48;;;9.20;99.90;;;;;;5351232;26;20000;-80
2024/04/19 06:27:23;;;;;;;20.88;9.55;;;9.30;99.90;;;;;;5349922;26;20821;-81
2024/04/19 06:29:51;;;;;;;18.65;8.80;;;9.30;99.90;;;;;;5339278;26;20019;-79
2024/04/19 06:32:17;;;;;;;15.52;7.20;;;9.30;99.90;;;;;;5348967;26;20034;-80
2024/04/19 06:34:47;;;;;;;17.45;8.90;;;9.30;99.90;;;;;;5363831;26;20109;-79
2024/04/19 06:37:13;;;;;;;15.48;8.35;;;9.40;99.90;;;;;;5372929;26;20036;-81
2024/04/19 06:39:39;;;;;;;18.85;9.55;;;9.30;99.90;;;;;;5361664;26;19997;-82
2024/04/19 06:42:04;;;;;;;16.67;8.50;;;9.30;99.90;;;;;;5376096;26;20000;-82
2024/04/19 06:44:30;;;;;;;15.25;7.10;;;9.30;99.90;;;;;;5379034;26;20074;-82
2024/04/19 06:46:55;;;;;;;15.25;7.72;;;9.30;99.90;;;;;;5377351;26;20343;-82
2024/04/19 06:49:23;;;;;;;10.38;4.80;;;9.30;99.90;;;;;;5378138;26;20004;-81
2024/04/19 06:51:49;;;;;;;6.85;2.65;;;9.30;99.90;;;;;;5381583;26;20438;-82
2024/04/19 06:54:14;;;;;;;7.45;2.70;;;9.20;99.90;;;;;;5382101;26;20070;-81
2024/04/19 06:56:40;;;;;;;9.45;3.08;;;9.10;99.90;;;;;;5384907;26;20050;-81
2024/04/19 06:59:07;;;;;;;8.30;3.25;;;9.10;99.90;;;;;;5384557;26;20007;-81
2024/04/19 07:01:34;;;;;;;9.02;2.67;;;9.20;99.90;;;;;;5383180;26;20004;-81
2024/04/19 07:04:00;;;;;;;13.70;3.20;;;9.20;99.90;;;;;;5373334;26;20011;-81
2024/04/19 07:06:25;;;;;;;13.73;3.72;;;9.30;99.90;;;;;;5382577;26;20007;-82
2024/04/19 07:08:51;;;;;;;13.43;4.10;;;9.40;99.90;;;;;;5382716;26;20007;-81
2024/04/19 07:11:16;;;;;;;15.25;3.60;;;9.40;99.90;;;;;;5382573;26;20433;-80
2024/04/19 07:13:46;;;;;;;11.00;2.83;;;9.50;99.90;;;;;;5382414;26;19992;-80
2024/04/19 07:16:12;;;;;;;12.20;3.20;;;9.60;99.90;;;;;;5382503;26;19996;-80
2024/04/19 07:18:38;;;;;;;12.80;3.15;;;9.70;99.90;;;;;;5352399;26;20007;-80
2024/04/19 07:21:18;;;;;;;7.65;2.20;;;9.70;99.90;;;;;;5412183;26;20418;-79
2024/04/19 07:23:43;;;;;;;11.63;2.22;;;9.90;99.90;;;;;;5392536;26;20010;-80
2024/04/19 07:26:09;;;;;;;12.35;2.28;;;9.90;99.90;;;;;;5400851;26;20352;-79
2024/04/19 07:28:35;;;;;;;13.60;3.20;;;9.90;99.90;;;;;;5395346;26;20085;-80
2024/04/19 07:31:00;;;;;;;13.05;3.05;;;9.90;99.90;;;;;;5391229;26;20006;-79
2024/04/19 07:33:26;;;;;;;13.55;3.63;;;9.90;99.90;;;;;;5392236;26;20000;-79
2024/04/19 07:35:51;;;;;;;17.15;3.97;;;9.90;99.90;;;;;;5380424;26;20004;-80
2024/04/19 07:38:17;;;;;;;14.40;3.55;;;9.90;99.90;;;;;;5388786;26;20089;-81
2024/04/19 07:40:42;;;;;;;12.27;2.97;;;9.80;99.90;;;;;;5383208;26;20000;-80
2024/04/19 07:43:08;;;;;;;16.48;3.33;;;9.70;99.90;;;;;;5390546;26;20011;-80
2024/04/19 07:45:34;;;;;;;16.73;3.63;;;9.60;99.90;;;;;;5387979;26;20448;-80
2024/04/19 07:47:59;;;;;;;9.27;3.00;;;9.50;99.90;;;;;;5392579;26;20517;-80
2024/04/19 07:50:25;;;;;;;13.25;3.10;;;9.50;99.90;;;;;;5364391;26;20000;-80
2024/04/19 07:52:50;;;;;;;9.65;3.38;;;9.40;99.90;;;;;;5397781;26;19995;-81
2024/04/19 07:55:17;;;;;;;11.50;4.10;;;9.40;99.90;;;;;;5388632;26;20085;-82
2024/04/19 07:57:46;;;;;;;13.73;2.40;;;9.40;99.90;;;;;;5364554;26;20008;-82
2024/04/19 08:00:16;;;;;;;8.45;2.42;;;9.40;99.90;;;;;;5362774;26;19998;-81
2024/04/19 08:02:43;;;;;;;13.25;2.47;;;9.30;99.90;;;;;;5390696;26;19996;-81
2024/04/19 08:05:09;;;;;;;14.80;2.83;;;9.30;99.90;;;;;;5388396;26;20008;-82
2024/04/19 08:07:35;;;;;;;16.30;3.95;;;9.30;99.90;;;;;;5385294;26;20011;-82
2024/04/19 08:10:02;;;;;;;8.05;3.10;;;9.30;99.90;;;;;;5394462;26;20015;-83
2024/04/19 08:12:28;;;;;;;17.77;3.22;;;9.40;99.90;;;;;;5399049;26;20095;-83
2024/04/19 08:14:53;;;;;;;10.80;2.08;;;9.40;99.90;;;;;;5400009;26;20020;-84
2024/04/19 08:17:19;;;;;;;8.73;1.40;;;9.20;99.90;;;;;;5397801;26;20006;-85
2024/04/19 08:19:45;;;;;;;5.03;0.88;;;9.10;99.90;;;;;;5395880;26;20015;-84
2024/04/19 08:22:11;;;;;;;8.52;0.90;;;9.00;99.90;;;;;;5374529;26;19996;-83
2024/04/19 08:24:36;;;;;;;5.40;1.02;;;9.00;99.90;;;;;;5389766;26;20007;-81
2024/04/19 08:27:02;;;;;;;8.20;1.88;;;9.00;99.90;;;;;;5394914;26;19999;-81
2024/04/19 08:29:28;;;;;;;12.10;1.85;;;9.00;99.90;;;;;;5396337;26;20006;-82
2024/04/19 08:31:53;;;;;;;3.97;0.90;;;9.00;99.90;;;;;;5361103;26;20008;-81
2024/04/19 08:34:19;;;;;;;8.82;1.40;;;9.10;99.90;;;;;;5382508;26;20009;-80
2024/04/19 08:36:45;;;;;;;6.28;0.98;;;9.10;99.90;;;;;;5365470;26;20334;-80
2024/04/19 08:39:10;;;;;;;7.65;1.10;;;9.10;99.90;;;;;;5383123;26;20000;-81
2024/04/19 08:41:36;;;;;;;12.45;1.63;;;9.10;99.90;;;;;;5373409;26;20011;-80
2024/04/19 08:44:03;;;;;;;11.60;2.70;;;9.20;99.90;;;;;;5380601;26;20347;-82
2024/04/19 08:46:32;;;;;;;10.68;1.92;;;9.20;99.90;;;;;;5357699;26;20001;-82
2024/04/19 08:49:02;;;;;;;3.97;0.88;;;9.10;99.90;;;;;;5375898;26;20008;-84
2024/04/19 08:51:29;;;;;;;9.95;1.00;;;9.10;99.90;;;;;;5383200;26;20476;-82
2024/04/19 08:53:55;;;;;;;10.25;1.50;;;8.90;99.90;;;;;;5381175;26;20004;-82
2024/04/19 08:56:21;;;;;;;5.68;1.10;;;8.90;99.90;;;;;;5373156;26;20755;-81
2024/04/19 08:58:46;;;;;;;6.03;1.40;;;8.90;99.90;;;;;;5360827;26;20338;-81
2024/04/19 09:01:13;;;;;;;6.80;1.98;;;8.90;99.90;;;;;;5355465;26;20360;-82
2024/04/19 09:03:39;;;;;;;16.13;2.17;;;8.90;99.90;;;;;;5374253;26;20012;-80
2024/04/19 09:06:07;;;;;;;8.63;1.35;;;9.00;99.90;;;;;;5367793;26;20016;-81
2024/04/19 09:08:34;;;;;;;10.95;1.10;;;8.90;99.90;;;;;;5376231;26;20000;-80
2024/04/19 09:11:13;;;;;;;8.18;1.05;;;8.90;99.90;;;;;;5381276;26;20376;-80
2024/04/19 09:13:39;;;;;;;7.07;0.70;;;8.80;99.90;;;;;;5367310;26;20079;-81
2024/04/19 09:16:05;;;;;;;7.47;1.00;;;8.70;99.90;;;;;;5375125;26;20025;-81
2024/04/19 09:18:30;;;;;;;5.78;0.90;;;8.70;99.90;;;;;;5355969;26;20000;-81
2024/04/19 09:20:56;;;;;;;8.73;1.00;;;8.60;99.90;;;;;;5356802;26;20078;-81
2024/04/19 09:23:22;;;;;;;6.28;0.93;;;8.60;99.90;;;;;;5373740;26;20462;-81
2024/04/19 09:25:55;;;;;;;4.75;0.57;;;8.50;99.90;;;;;;5374174;26;20000;-80
2024/04/19 09:28:22;;;;;;;3.05;0.47;;;8.40;99.90;;;;;;5380209;26;20000;-81
2024/04/19 09:30:52;;;;;;;5.05;0.47;;;8.30;99.90;;;;;;5383641;26;20386;-80
2024/04/19 09:33:20;;;;;;;1.45;0.45;;;8.40;99.90;;;;;;5366468;26;20010;-80
2024/04/19 09:35:45;;;;;;;3.70;0.60;;;8.40;99.90;;;;;;5371257;26;20040;-81
2024/04/19 09:38:14;;;;;;;7.82;0.60;;;8.50;99.90;;;;;;5366776;26;19996;-80
2024/04/19 09:40:44;;;;;;;2.53;0.63;;;8.50;99.90;;;;;;5374190;26;20000;-80
2024/04/19 09:43:17;;;;;;;5.72;1.08;;;8.60;99.90;;;;;;5375654;26;20004;-80
2024/04/19 09:45:43;;;;;;;;;;;8.60;99.90;;;;;;5377940;26;20009;-79
2024/04/19 09:48:15;;;;;;;3.70;0.80;;;8.70;99.90;;;;;;5373892;26;20443;-81
2024/04/19 09:50:45;;;;;;;9.18;1.48;;;8.80;99.90;;;;;;5365993;26;20011;-80
2024/04/19 09:53:25;;;;;;;4.95;1.40;;;8.90;99.90;;;;;;5375280;26;20028;-79
2024/04/19 09:56:04;;;;;;;8.43;2.08;;;9.10;99.90;;;;;;5378584;26;20046;-79
2024/04/19 09:58:33;;;;;;;4.85;1.67;;;9.40;99.90;;;;;;5367379;26;19997;-80
2024/04/19 10:01:00;;;;;;;5.07;1.55;;;9.60;99.90;;;;;;5368146;26;20006;-78
2024/04/19 10:03:28;;;;;;;5.32;1.40;;;9.70;99.90;;;;;;5365601;26;20015;-80
2024/04/19 10:05:54;;;;;;;3.65;1.75;;;9.90;99.90;;;;;;5351327;26;19997;-79
2024/04/19 10:08:23;;;;;;;5.88;1.35;;;9.80;99.90;;;;;;5370476;26;20012;-79
2024/04/19 10:10:53;;;;;;;4.93;1.67;;;9.90;99.90;;;;;;5382057;26;20004;-79
2024/04/19 10:13:19;;;;;;;4.35;1.40;;;10.00;99.90;;;;;;5378116;26;20803;-79
2024/04/19 10:15:48;;;;;;;5.38;1.88;;;10.20;99.90;;;;;;5365911;26;20476;-79
2024/04/19 10:18:13;;;;;;;5.95;2.00;;;10.30;99.90;;;;;;5373102;26;19997;-79
2024/04/19 10:20:41;;;;;;;4.22;2.03;;;10.50;99.90;;;;;;5380816;26;20019;-79
2024/04/19 10:23:12;;;;;;;7.53;1.90;;;10.60;99.90;;;;;;5378714;26;20007;-79
2024/04/19 10:25:38;;;;;;;4.22;2.08;;;10.60;99.90;;;;;;5381124;26;20011;-79
2024/04/19 10:28:10;;;;;;;4.55;1.42;;;10.60;99.90;;;;;;5376082;26;20004;-80
2024/04/19 10:30:37;;;;;;;4.25;1.67;;;10.60;99.90;;;;;;5380582;26;20024;-79
2024/04/19 10:33:02;;;;;;;2.92;1.50;;;10.60;99.90;;;;;;5377342;26;20003;-79
2024/04/19 10:35:37;;;;;;;6.38;2.25;;;10.50;99.90;;;;;;5376823;26;20007;-79
2024/04/19 10:38:03;;;;;;;7.82;2.97;;;10.60;99.90;;;;;;5376330;26;20452;-79
2024/04/19 10:40:29;;;;;;;5.32;1.80;;;10.90;99.90;;;;;;5378056;26;20040;-80
2024/04/19 10:43:07;;;;;;;6.70;1.77;;;11.10;99.90;;;;;;5376943;26;20085;-79
2024/04/19 10:45:34;;;;;;;2.95;1.70;;;11.00;99.90;;;;;;5375577;26;20438;-79
2024/04/19 10:48:01;;;;;;;9.43;1.30;;;10.90;99.90;;;;;;5377613;26;19996;-78
2024/04/19 10:50:28;;;;;;;3.17;0.80;;;11.00;99.90;;;;;;5363271;26;20005;-79
2024/04/19 10:52:54;;;;;;;4.32;0.73;;;11.00;99.90;;;;;;5372420;26;19996;-79
2024/04/19 10:55:20;;;;;;;7.35;1.25;;;11.00;99.90;;;;;;5362486;26;20019;-79
2024/04/19 10:57:46;;;;;;;5.65;1.02;;;11.00;99.90;;;;;;5361758;26;20001;-79
2024/04/19 11:00:15;;;;;;;5.65;0.60;;;10.80;99.90;;;;;;5371701;26;20000;-80
2024/04/19 11:02:41;;;;;;;5.80;0.70;;;10.60;99.90;;;;;;5384514;26;20004;-78
2024/04/19 11:05:07;;;;;;;4.25;0.75;;;10.50;99.90;;;;;;5382309;26;20081;-79
2024/04/19 11:07:37;;;;;;;5.28;0.70;;;10.40;99.90;;;;;;5380685;26;20000;-79
2024/04/19 11:10:06;;;;;;;5.45;0.82;;;10.50;99.90;;;;;;5380521;26;20019;-80
2024/04/19 11:12:33;;;;;;;7.43;1.08;;;10.60;99.90;;;;;;5382295;26;19997;-80
2024/04/19 11:15:01;;;;;;;11.05;1.17;;;10.80;99.90;;;;;;5383099;26;20554;-80
2024/04/19 11:17:26;;;;;;;9.68;1.65;;;11.00;99.90;;;;;;5381991;26;20019;-79
2024/04/19 11:19:52;;;;;;;6.20;1.00;;;11.20;99.90;;;;;;5380795;26;20044;-80
2024/04/19 11:22:18;;;;;;;10.10;1.10;;;11.30;99.90;;;;;;5375196;26;20457;-79
2024/04/19 11:24:43;;;;;;;8.98;1.17;;;11.30;99.90;;;;;;5365338;26;20012;-78
2024/04/19 11:27:11;;;;;;;13.27;1.00;;;11.40;99.90;;;;;;5361477;26;20334;-79
2024/04/19 11:29:37;;;;;;;9.82;0.95;;;11.50;99.90;;;;;;5379908;26;19996;-79
2024/04/19 11:32:07;;;;;;;9.32;0.70;;;11.40;99.90;;;;;;5382056;26;20030;-79
2024/04/19 11:34:33;;;;;;;5.82;0.90;;;11.40;99.90;;;;;;5385146;26;20005;-78
2024/04/19 11:37:06;;;;;;;7.05;1.02;;;11.10;99.90;;;;;;5381001;26;20504;-80
2024/04/19 11:39:31;;;;;;;;;;;11.00;99.90;;;;;;5383005;26;20033;-79
2024/04/19 11:41:58;;;;;;;8.68;0.80;;;10.80;99.90;;;;;;5381578;26;19952;-80
2024/04/19 11:44:23;;;;;;;8.88;1.05;;;10.80;99.90;;;;;;5382767;26;20355;-80
2024/04/19 11:46:49;;;;;;;10.98;1.63;;;10.90;99.90;;;;;;5382814;26;20000;-80
2024/04/19 11:49:16;;;;;;;11.57;1.60;;;11.10;99.90;;;;;;5384035;26;20031;-80
2024/04/19 11:51:43;;;;;;;4.93;0.40;;;11.40;99.90;;;;;;5378697;26;20478;-82
2024/04/19 11:54:09;;;;;;;5.03;0.43;;;11.30;99.90;;;;;;5378743;26;20015;-82
2024/04/19 11:56:34;;;;;;;6.50;0.40;;;10.00;99.90;;;;;;5378671;26;20001;-81
2024/04/19 11:59:02;;;;;;;2.85;0.20;;;8.60;99.90;;;;;;5368203;26;20005;-81
2024/04/19 12:01:28;;;;;;;2.72;0.30;;;7.80;99.90;;;;;;5372238;26;20004;-80
2024/04/19 12:03:57;;;;;;;4.35;0.40;;;7.40;99.90;;;;;;5375906;26;20480;-80
2024/04/19 12:06:23;;;;;;;4.28;0.60;;;7.40;99.90;;;;;;5365793;26;19992;-80
2024/04/19 12:08:49;;;;;;;3.97;0.40;;;7.60;99.90;;;;;;5375518;26;20086;-80
2024/04/19 12:11:15;;;;;;;5.25;0.50;;;7.80;99.90;;;;;;5382953;26;20069;-81
2024/04/19 12:13:40;;;;;;;3.60;0.50;;;7.80;99.90;;;;;;5383998;26;20012;-80
2024/04/19 12:16:06;;;;;;;3.45;0.43;;;7.80;99.90;;;;;;5384076;26;20410;-81
2024/04/19 12:18:32;;;;;;;8.98;0.75;;;8.00;99.90;;;;;;5357390;26;20011;-81
2024/04/19 12:20:57;;;;;;;10.55;0.93;;;8.20;99.90;;;;;;5369115;26;20349;-81
2024/04/19 12:23:23;;;;;;;10.68;1.23;;;8.50;99.90;;;;;;5381621;26;20019;-81
2024/04/19 12:25:48;;;;;;;7.38;0.70;;;8.80;99.90;;;;;;5384127;26;19996;-82
2024/04/19 12:28:14;;;;;;;9.95;1.00;;;9.10;99.90;;;;;;5383635;26;20032;-83
2024/04/19 12:30:40;;;;;;;14.68;1.10;;;9.20;99.90;;;;;;5376652;26;20328;-81
2024/04/19 12:33:05;;;;;;;9.95;1.23;;;9.20;99.90;;;;;;5376628;26;20011;-81
2024/04/19 12:35:34;;;;;;;11.13;1.02;;;9.20;99.90;;;;;;5334146;26;19997;-83
2024/04/19 12:38:00;;;;;;;6.90;0.80;;;9.10;99.90;;;;;;5358615;26;20015;-84
2024/04/19 12:40:26;;;;;;;4.90;0.52;;;8.90;99.90;;;;;;5384751;26;20436;-86
2024/04/19 12:42:52;;;;;;;5.03;0.40;;;8.80;99.90;;;;;;5384950;26;20008;-87
2024/04/19 12:45:17;;;;;;;7.40;0.32;;;8.40;99.90;;;;;;5385602;26;20023;-87
2024/04/19 12:47:43;;;;;;;6.95;0.50;;;8.00;99.90;;;;;;5384504;26;19993;-85
2024/04/19 12:50:08;;;;;;;5.70;0.50;;;7.90;99.90;;;;;;5374682;26;20015;-86
2024/04/19 12:52:34;;;;;;;10.07;0.60;;;7.80;99.90;;;;;;5384802;26;20410;-87
2024/04/19 12:55:00;;;;;;;9.90;0.70;;;7.80;99.90;;;;;;5370823;26;20019;-83